createdAt,value
2019-06-07T00:02:16.441Z,100661.42
2019-06-07T00:04:48.991Z,100650.68
2019-06-07T00:07:22.018Z,100647.64
2019-06-07T00:09:54.424Z,100650.87
2019-06-07T00:12:27.355Z,100639.75
2019-06-07T00:15:00.199Z,100637.30
2019-06-07T00:17:32.822Z,100630.82
2019-06-07T00:20:05.901Z,100643.97
2019-06-07T00:22:38.834Z,100651.42
2019-06-07T00:25:15.089Z,100646.59
2019-06-07T00:27:46.215Z,100649.80
2019-06-07T00:30:37.622Z,100644.95
2019-06-07T00:32:54.630Z,100634.20
2019-06-07T00:35:27.063Z,100635.80
2019-06-07T00:37:59.531Z,100635.97
2019-06-07T00:40:32.478Z,100634.54
2019-06-07T00:43:05.489Z,100626.24
2019-06-07T00:45:37.933Z,100616.75
2019-06-07T00:48:15.987Z,100625.22
2019-06-07T00:50:44.695Z,100619.72
2019-06-07T00:53:26.924Z,100630.44
2019-06-07T00:55:51.325Z,100633.43
2019-06-07T00:58:27.624Z,100636.87
2019-06-07T01:00:57.909Z,100633.25
2019-06-07T01:03:30.420Z,100634.45
2019-06-07T01:06:02.791Z,100628.80
2019-06-07T01:08:35.419Z,100633.25
2019-06-07T01:11:07.777Z,100634.45
2019-06-07T01:13:40.084Z,100639.50
2019-06-07T01:16:13.786Z,100648.41
2019-06-07T01:18:51.013Z,100646.00
2019-06-07T01:21:23.685Z,100652.45
2019-06-07T01:24:11.059Z,100660.17
2019-06-07T01:26:30.430Z,100654.93
2019-06-07T01:29:02.942Z,100650.28
2019-06-07T01:31:35.396Z,100651.29
2019-06-07T01:34:07.767Z,100656.16
2019-06-07T01:36:40.310Z,100661.81
2019-06-07T01:39:12.851Z,100656.37
2019-06-07T01:41:45.321Z,100653.34
2019-06-07T01:44:22.239Z,100650.72
2019-06-07T01:46:52.080Z,100649.11
2019-06-07T01:49:27.490Z,100644.07
2019-06-07T01:51:58.771Z,100643.86
2019-06-07T01:57:05.537Z,100635.36
2019-06-07T01:59:38.287Z,100631.11
2019-06-07T02:02:10.697Z,100629.48
2019-06-07T02:04:43.081Z,100628.06
2019-06-07T02:07:15.702Z,100633.52
2019-06-07T02:09:48.188Z,100643.63
2019-06-07T02:12:28.069Z,100637.77
2019-06-07T02:14:56.842Z,100630.05
2019-06-07T02:17:31.000Z,100632.06
2019-06-07T02:20:03.911Z,100642.55
2019-06-07T02:22:36.653Z,100644.37
2019-06-07T02:27:43.822Z,100643.76
2019-06-07T02:30:40.464Z,100646.00
2019-06-07T02:32:51.588Z,100649.63
2019-06-07T02:35:27.118Z,100651.45
2019-06-07T02:37:59.081Z,100662.55
2019-06-07T02:40:33.247Z,100663.97
2019-06-07T02:43:05.820Z,100659.73
2019-06-07T02:45:43.549Z,100668.42
2019-06-07T02:48:12.445Z,100667.79
2019-06-07T02:50:44.843Z,100676.27
2019-06-07T02:53:17.321Z,100675.69
2019-06-07T02:56:33.837Z,100678.30
2019-06-07T02:58:26.005Z,100682.36
2019-06-07T03:01:07.619Z,100685.61
2019-06-07T03:03:33.708Z,100679.36
2019-06-07T03:06:06.734Z,100680.80
2019-06-07T03:08:42.410Z,100684.47
2019-06-07T03:11:16.957Z,100679.45
2019-06-07T03:13:51.113Z,100686.33
2019-06-07T03:16:36.752Z,100691.59
2019-06-07T03:19:26.393Z,100688.75
2019-06-07T03:21:59.466Z,100687.55
2019-06-07T03:24:37.990Z,100684.52
2019-06-07T03:27:34.337Z,100690.79
2019-06-07T03:29:43.977Z,100688.97
2019-06-07T03:32:19.672Z,100690.80
2019-06-07T03:34:52.007Z,100692.64
2019-06-07T03:37:24.442Z,100695.48
2019-06-07T03:39:57.136Z,100695.90
2019-06-07T03:42:31.564Z,100698.75
2019-06-07T03:45:03.943Z,100693.51
2019-06-07T03:47:41.421Z,100694.73
2019-06-07T03:50:10.978Z,100695.53
2019-06-07T03:52:43.700Z,100697.37
2019-06-07T03:55:16.570Z,100695.33
2019-06-07T04:00:28.828Z,100701.84
2019-06-07T04:03:00.275Z,100703.68
2019-06-07T04:05:38.600Z,100696.81
2019-06-07T04:08:09.468Z,100696.20
2019-06-07T04:10:58.629Z,100698.65
2019-06-07T04:13:16.142Z,100693.80
2019-06-07T04:15:48.947Z,100695.88
2019-06-07T04:18:21.423Z,100704.58
2019-06-07T04:20:53.942Z,100708.83
2019-06-07T04:23:30.034Z,100711.05
2019-06-07T04:26:00.599Z,100715.50
2019-06-07T04:29:26.106Z,100713.69
2019-06-07T04:31:07.969Z,100714.94
2019-06-07T04:33:43.552Z,100718.16
2019-06-07T04:36:15.348Z,100717.58
2019-06-07T04:38:49.359Z,100716.80
2019-06-07T04:41:26.183Z,100718.81
2019-06-07T04:44:01.245Z,100712.58
2019-06-07T04:46:39.023Z,100712.80
2019-06-07T04:49:09.026Z,100714.06
2019-06-07T04:51:42.785Z,100712.05
2019-06-07T04:54:15.237Z,100715.31
2019-06-07T04:56:48.264Z,100713.19
2019-06-07T05:00:00.769Z,100715.05
2019-06-07T05:01:54.835Z,100712.83
2019-06-07T05:04:28.974Z,100709.82
2019-06-07T05:07:02.659Z,100709.44
2019-06-07T05:09:38.942Z,100711.06
2019-06-07T05:12:09.890Z,100711.49
2019-06-07T05:14:44.184Z,100710.69
2019-06-07T05:17:16.377Z,100714.03
2019-06-07T05:19:48.933Z,100696.99
2019-06-07T05:22:21.586Z,100698.72
2019-06-07T05:24:53.855Z,100695.13
2019-06-07T05:27:26.316Z,100687.81
2019-06-07T05:30:13.202Z,100687.98
2019-06-07T05:32:34.991Z,100689.45
2019-06-07T05:35:08.962Z,100694.20
2019-06-07T05:37:45.616Z,100692.01
2019-06-07T05:40:18.660Z,100692.88
2019-06-07T05:42:50.995Z,100693.13
2019-06-07T05:45:35.043Z,100698.41
2019-06-07T05:48:10.275Z,100692.59
2019-06-07T05:50:55.774Z,100688.32
2019-06-07T05:53:17.636Z,100694.08
2019-06-07T05:55:50.493Z,100689.73
2019-06-07T05:58:23.460Z,100696.22
2019-06-07T06:00:56.380Z,100690.89
2019-06-07T06:03:28.903Z,100697.91
2019-06-07T06:06:01.286Z,100696.16
2019-06-07T06:08:36.573Z,100703.52
2019-06-07T06:11:08.871Z,100710.33
2019-06-07T06:14:04.663Z,100704.00
2019-06-07T06:16:15.288Z,100703.34
2019-06-07T06:18:49.183Z,100710.69
2019-06-07T06:21:21.836Z,100711.66
2019-06-07T06:23:55.351Z,100715.73
2019-06-07T06:26:27.951Z,100719.48
2019-06-07T06:29:00.832Z,100714.20
2019-06-07T06:31:33.446Z,100718.55
2019-06-07T06:34:06.445Z,100712.63
2019-06-07T06:36:39.919Z,100716.11
2019-06-07T06:39:13.283Z,100705.44
2019-06-07T06:41:57.609Z,100709.17
2019-06-07T06:44:20.391Z,100695.32
2019-06-07T06:46:58.146Z,100700.64
2019-06-07T06:49:27.408Z,100702.29
2019-06-07T06:51:59.912Z,100705.52
2019-06-07T06:54:40.642Z,100710.10
2019-06-07T06:57:19.281Z,100712.06
2019-06-07T06:59:41.790Z,100714.87
2019-06-07T07:02:14.877Z,100713.48
2019-06-07T07:04:48.672Z,100712.97
2019-06-07T07:07:22.146Z,100711.25
2019-06-07T07:09:58.655Z,100710.92
2019-06-07T07:12:29.124Z,100720.28
2019-06-07T07:15:01.772Z,100717.95
2019-06-07T07:17:50.679Z,100730.34
2019-06-07T07:20:10.084Z,100740.25
2019-06-07T07:22:46.414Z,100739.50
2019-06-07T07:25:16.867Z,100741.69
2019-06-07T07:27:52.167Z,100740.41
2019-06-07T07:30:43.054Z,100747.41
2019-06-07T07:33:16.759Z,100746.42
2019-06-07T07:36:10.889Z,100741.76
2019-06-07T07:38:25.677Z,100733.62
2019-06-07T07:41:10.591Z,100730.39
2019-06-07T07:43:32.759Z,100732.69
2019-06-07T07:46:27.955Z,100737.23
2019-06-07T07:48:40.209Z,100738.30
2019-06-07T07:51:12.606Z,100742.02
2019-06-07T07:53:53.168Z,100740.23
2019-06-07T07:56:19.629Z,100735.38
2019-06-07T07:58:57.943Z,100736.50
2019-06-07T08:01:26.543Z,100741.43
2019-06-07T08:03:59.032Z,100737.42
2019-06-07T08:06:31.575Z,100743.63
2019-06-07T08:09:04.322Z,100736.98
2019-06-07T08:11:37.057Z,100735.29
2019-06-07T08:14:09.458Z,100737.21
2019-06-07T08:16:41.911Z,100735.70
2019-06-07T08:19:14.389Z,100736.11
2019-06-07T08:21:47.924Z,100738.56
2019-06-07T08:24:21.011Z,100742.33
2019-06-07T08:27:22.106Z,100739.13
2019-06-07T08:29:43.791Z,100740.36
2019-06-07T08:32:02.089Z,100740.20
2019-06-07T08:34:34.516Z,100739.94
2019-06-07T08:37:06.974Z,100725.44
2019-06-07T08:39:52.801Z,100729.63
2019-06-07T08:42:36.869Z,100727.03
2019-06-07T08:45:03.714Z,100734.19
2019-06-07T08:47:34.714Z,100727.30
2019-06-07T08:50:10.509Z,100730.42
2019-06-07T08:52:43.024Z,100731.67
2019-06-07T08:55:16.153Z,100727.53
2019-06-07T08:57:48.470Z,100725.07
2019-06-07T09:02:58.165Z,100729.65
2019-06-07T09:05:30.970Z,100724.61
2019-06-07T09:08:25.944Z,100721.49
2019-06-07T09:10:37.930Z,100720.98
2019-06-07T09:13:11.877Z,100722.91
2019-06-07T09:15:44.523Z,100721.35
2019-06-07T09:18:40.917Z,100717.57
2019-06-07T09:20:52.307Z,100712.33
2019-06-07T09:23:25.262Z,100709.78
2019-06-07T09:26:07.930Z,100718.08
2019-06-07T09:28:33.076Z,100700.23
2019-06-07T09:31:09.866Z,100704.81
2019-06-07T09:33:40.072Z,100693.23
2019-06-07T09:36:13.351Z,100697.77
2019-06-07T09:38:46.761Z,100691.48
2019-06-07T09:41:19.951Z,100696.85
2019-06-07T09:44:05.385Z,100697.09
2019-06-07T09:46:27.470Z,100703.41
2019-06-07T09:49:14.699Z,100706.69
2019-06-07T09:51:34.627Z,100707.09
2019-06-07T09:54:10.806Z,100707.16
2019-06-07T09:56:41.332Z,100711.08
2019-06-07T09:59:13.780Z,100706.16
2019-06-07T10:01:46.301Z,100702.47
2019-06-07T10:04:30.910Z,100700.41
2019-06-07T10:06:53.417Z,100701.23
2019-06-07T10:10:08.640Z,100705.45
2019-06-07T10:12:00.389Z,100705.41
2019-06-07T10:14:33.310Z,100705.59
2019-06-07T10:17:07.256Z,100699.70
2019-06-07T10:19:39.972Z,100701.56
2019-06-07T10:22:12.346Z,100696.85
2019-06-07T10:24:44.943Z,100705.74
2019-06-07T10:27:17.552Z,100704.27
2019-06-07T10:29:49.922Z,100704.20
2019-06-07T10:32:22.520Z,100702.16
2019-06-07T10:34:54.959Z,100709.23
2019-06-07T10:37:28.684Z,100698.67
2019-06-07T10:40:01.123Z,100694.64
2019-06-07T10:42:33.788Z,100697.90
2019-06-07T10:45:08.243Z,100693.79
2019-06-07T10:47:41.173Z,100695.90
2019-06-07T10:50:14.414Z,100694.61
2019-06-07T10:52:47.411Z,100694.42
2019-06-07T10:55:20.124Z,100700.17
2019-06-07T10:57:53.238Z,100705.15
2019-06-07T11:00:26.150Z,100706.00
2019-06-07T11:02:58.794Z,100703.80
2019-06-07T11:05:31.153Z,100703.41
2019-06-07T11:08:03.940Z,100708.73
2019-06-07T11:10:36.828Z,100706.78
2019-06-07T11:13:10.396Z,100698.54
2019-06-07T11:15:42.902Z,100703.75
2019-06-07T11:18:15.424Z,100692.36
2019-06-07T11:20:48.276Z,100697.32
2019-06-07T11:23:20.856Z,100696.14
2019-06-07T11:25:53.460Z,100688.37
2019-06-07T11:28:25.998Z,100689.80
2019-06-07T11:30:58.496Z,100683.66
2019-06-07T11:33:30.969Z,100685.47
2019-06-07T11:36:03.684Z,100686.11
2019-06-07T11:38:35.983Z,100692.20
2019-06-07T11:41:09.354Z,100692.60
2019-06-07T11:43:42.047Z,100686.66
2019-06-07T11:46:15.117Z,100693.38
2019-06-07T11:48:47.892Z,100683.80
2019-06-07T11:51:20.266Z,100691.37
2019-06-07T11:53:52.795Z,100690.58
2019-06-07T11:56:25.262Z,100688.08
2019-06-07T11:58:57.906Z,100686.66
2019-06-07T12:01:30.541Z,100689.34
2019-06-07T12:04:03.064Z,100677.36
2019-06-07T12:06:35.867Z,100683.11
2019-06-07T12:09:12.463Z,100677.86
2019-06-07T12:11:45.216Z,100686.03
2019-06-07T12:14:19.221Z,100683.23
2019-06-07T12:16:51.840Z,100676.31
2019-06-07T12:19:24.526Z,100672.27
2019-06-07T12:21:58.244Z,100671.45
2019-06-07T12:24:30.686Z,100665.80
2019-06-07T12:27:03.724Z,100656.91
2019-06-07T12:29:36.611Z,100654.59
2019-06-07T12:32:09.207Z,100653.41
2019-06-07T12:34:41.554Z,100642.06
2019-06-07T12:37:17.770Z,100650.02
2019-06-07T12:39:48.306Z,100642.06
2019-06-07T12:42:25.812Z,100641.97
2019-06-07T12:45:03.532Z,100642.94
2019-06-07T12:47:37.844Z,100636.20
2019-06-07T12:50:13.510Z,100632.12
2019-06-07T12:52:46.285Z,100626.44
2019-06-07T12:55:20.468Z,100628.11
2019-06-07T12:57:53.655Z,100629.78
2019-06-07T13:00:26.392Z,100627.58
2019-06-07T13:02:58.779Z,100626.00
2019-06-07T13:05:31.318Z,100632.42
2019-06-07T13:08:05.189Z,100626.80
2019-06-07T13:10:40.144Z,100629.53
2019-06-07T13:13:13.074Z,100636.73
2019-06-07T13:15:45.565Z,100637.45
2019-06-07T13:18:19.793Z,100640.55
2019-06-07T13:20:55.327Z,100636.55
2019-06-07T13:23:26.304Z,100628.84
2019-06-07T13:25:58.766Z,100629.08
2019-06-07T13:28:31.716Z,100624.41
2019-06-07T13:31:04.600Z,100617.53
2019-06-07T13:33:38.755Z,100612.64
2019-06-07T13:36:11.321Z,100607.61
2019-06-07T13:38:43.693Z,100606.59
2019-06-07T13:41:30.265Z,100608.88
2019-06-07T13:43:51.690Z,100613.34
2019-06-07T13:46:25.326Z,100609.94
2019-06-07T13:48:57.840Z,100603.84
2019-06-07T13:51:33.226Z,100603.88
2019-06-07T13:54:08.139Z,100612.22
2019-06-07T13:57:00.869Z,100616.92
2019-06-07T13:59:14.626Z,100610.87
2019-06-07T14:01:47.107Z,100607.27
2019-06-07T14:04:20.910Z,100604.09
2019-06-07T14:06:53.746Z,100608.78
2019-06-07T14:09:27.484Z,100609.86
2019-06-07T14:12:00.175Z,100603.63
2019-06-07T14:14:32.516Z,100611.19
2019-06-07T14:17:05.009Z,100610.04
2019-06-07T14:19:37.647Z,100609.66
2019-06-07T14:22:10.349Z,100610.30
2019-06-07T14:24:42.836Z,100609.70
2019-06-07T14:27:15.399Z,100603.41
2019-06-07T14:29:47.815Z,100602.78
2019-06-07T14:32:22.489Z,100607.67
2019-06-07T14:34:55.207Z,100609.31
2019-06-07T14:37:29.031Z,100607.29
2019-06-07T14:40:01.398Z,100599.58
2019-06-07T14:42:34.206Z,100596.17
2019-06-07T14:45:08.213Z,100595.34
2019-06-07T14:47:41.109Z,100593.31
2019-06-07T14:50:16.670Z,100593.54
2019-06-07T14:52:49.346Z,100589.08
2019-06-07T14:55:22.047Z,100588.50
2019-06-07T14:57:54.785Z,100586.08
2019-06-07T15:00:41.519Z,100585.47
2019-06-07T15:03:14.396Z,100594.01
2019-06-07T15:05:46.825Z,100584.09
2019-06-07T15:08:19.477Z,100597.30
2019-06-07T15:10:51.890Z,100581.06
2019-06-07T15:13:24.502Z,100594.87
2019-06-07T15:15:57.787Z,100589.20
2019-06-07T15:18:31.619Z,100590.81
2019-06-07T15:21:04.365Z,100592.87
2019-06-07T15:23:36.979Z,100589.22
2019-06-07T15:26:09.876Z,100580.12
2019-06-07T15:28:42.337Z,100582.94
2019-06-07T15:31:14.875Z,100582.16
2019-06-07T15:33:47.340Z,100588.84
2019-06-07T15:36:19.844Z,100593.70
2019-06-07T15:38:52.287Z,100599.18
2019-06-07T15:41:24.683Z,100595.15
2019-06-07T15:43:57.057Z,100592.70
2019-06-07T15:46:29.514Z,100596.94
2019-06-07T15:49:02.094Z,100597.98
2019-06-07T15:51:34.890Z,100606.87
2019-06-07T15:54:07.482Z,100598.78
2019-06-07T15:56:41.308Z,100596.55
2019-06-07T15:59:13.965Z,100598.56
2019-06-07T16:01:46.546Z,100597.35
2019-06-07T16:04:19.145Z,100605.66
2019-06-07T16:06:52.082Z,100610.53
2019-06-07T16:09:24.455Z,100620.43
2019-06-07T16:11:57.427Z,100621.64
2019-06-07T16:14:30.057Z,100621.44
2019-06-07T16:17:03.278Z,100621.44
2019-06-07T16:19:39.791Z,100613.94
2019-06-07T16:22:09.745Z,100622.65
2019-06-07T16:24:42.483Z,100630.36
2019-06-07T16:27:14.990Z,100627.11
2019-06-07T16:29:47.374Z,100622.05
2019-06-07T16:32:20.344Z,100622.05
2019-06-07T16:34:54.902Z,100620.44
2019-06-07T16:37:27.436Z,100623.06
2019-06-07T16:40:00.095Z,100615.14
2019-06-07T16:42:34.522Z,100623.06
2019-06-07T16:45:08.123Z,100618.16
2019-06-07T16:47:42.804Z,100621.19
2019-06-07T16:50:16.309Z,100626.03
2019-06-07T16:52:48.862Z,100627.86
2019-06-07T16:55:22.604Z,100622.61
2019-06-07T16:57:55.068Z,100622.57
2019-06-07T17:00:28.163Z,100620.77
2019-06-07T17:03:00.534Z,100624.39
2019-06-07T17:05:32.866Z,100628.64
2019-06-07T17:08:05.489Z,100636.92
2019-06-07T17:10:38.235Z,100640.34
2019-06-07T17:13:11.049Z,100641.39
2019-06-07T17:15:44.864Z,100642.39
2019-06-07T17:18:17.594Z,100641.98
2019-06-07T17:20:50.020Z,100639.77
2019-06-07T17:23:22.580Z,100648.47
2019-06-07T17:25:55.018Z,100649.89
2019-06-07T17:28:28.077Z,100655.14
2019-06-07T17:31:00.556Z,100659.19
2019-06-07T17:33:33.055Z,100659.60
2019-06-07T17:36:06.138Z,100656.77
2019-06-07T17:38:40.410Z,100660.80
2019-06-07T17:41:13.763Z,100660.19
2019-06-07T17:46:41.588Z,100670.52
2019-06-07T17:49:14.176Z,100671.14
2019-06-07T17:51:48.036Z,100677.61
2019-06-07T17:54:20.660Z,100680.02
2019-06-07T17:56:53.459Z,100682.47
2019-06-07T17:59:25.849Z,100684.05
2019-06-07T18:02:15.572Z,100682.25
2019-06-07T18:04:33.101Z,100683.83
2019-06-07T18:07:05.869Z,100683.45
2019-06-07T18:09:39.175Z,100691.11
2019-06-07T18:12:12.208Z,100694.73
2019-06-07T18:14:45.785Z,100695.77
2019-06-07T18:17:33.508Z,100688.84
2019-06-07T18:19:53.007Z,100691.50
2019-06-07T18:22:25.458Z,100701.20
2019-06-07T18:24:58.927Z,100706.88
2019-06-07T18:27:31.575Z,100712.13
2019-06-07T18:30:11.280Z,100709.91
2019-06-07T18:32:38.238Z,100704.63
2019-06-07T18:35:10.824Z,100698.15
2019-06-07T18:37:47.080Z,100707.84
2019-06-07T18:40:19.954Z,100722.99
2019-06-07T18:42:53.278Z,100733.90
2019-06-07T18:45:25.694Z,100731.44
2019-06-07T18:47:58.256Z,100725.78
2019-06-07T18:50:30.630Z,100727.56
2019-06-07T18:53:03.251Z,100731.02
2019-06-07T18:55:35.584Z,100728.98
2019-06-07T18:58:09.011Z,100724.57
2019-06-07T19:00:41.434Z,100732.23
2019-06-07T19:03:13.899Z,100727.99
2019-06-07T19:05:46.396Z,100724.57
2019-06-07T19:08:19.008Z,100724.78
2019-06-07T19:10:52.622Z,100732.08
2019-06-07T19:13:25.486Z,100730.88
2019-06-07T19:15:57.919Z,100736.75
2019-06-07T19:18:30.729Z,100728.87
2019-06-07T19:21:03.138Z,100734.91
2019-06-07T19:23:35.460Z,100725.98
2019-06-07T19:26:07.965Z,100727.78
2019-06-07T19:28:40.478Z,100721.70
2019-06-07T19:31:13.383Z,100722.51
2019-06-07T19:33:49.034Z,100720.27
2019-06-07T19:36:20.747Z,100719.25
2019-06-07T19:38:53.862Z,100722.88
2019-06-07T19:41:26.654Z,100718.24
2019-06-07T19:44:00.302Z,100715.41
2019-06-07T19:46:33.321Z,100718.41
2019-06-07T19:49:06.071Z,100717.80
2019-06-07T19:51:38.927Z,100717.80
2019-06-07T19:54:11.472Z,100722.05
2019-06-07T19:56:44.082Z,100723.84
2019-06-07T19:59:16.426Z,100723.04
2019-06-07T20:01:48.948Z,100727.08
2019-06-07T20:04:21.336Z,100726.06
2019-06-07T20:06:54.074Z,100728.90
2019-06-07T20:09:26.815Z,100725.86
2019-06-07T20:12:00.415Z,100723.39
2019-06-07T20:14:33.247Z,100722.17
2019-06-07T20:17:05.763Z,100716.70
2019-06-07T20:19:38.274Z,100710.41
2019-06-07T20:22:10.910Z,100712.02
2019-06-07T20:24:43.642Z,100712.80
2019-06-07T20:27:16.140Z,100721.91
2019-06-07T20:29:48.581Z,100727.56
2019-06-07T20:32:20.968Z,100730.18
2019-06-07T20:34:53.596Z,100734.00
2019-06-07T20:37:26.107Z,100737.02
2019-06-07T20:40:02.634Z,100739.83
2019-06-07T20:42:32.811Z,100739.83
2019-06-07T20:45:05.945Z,100745.86
2019-06-07T20:47:38.544Z,100746.48
2019-06-07T20:50:11.463Z,100755.39
2019-06-07T20:52:43.986Z,100755.20
2019-06-07T20:55:16.879Z,100756.64
2019-06-07T20:57:49.637Z,100759.06
2019-06-07T21:00:22.701Z,100750.20
2019-06-07T21:02:55.106Z,100750.02
2019-06-07T21:05:27.738Z,100751.64
2019-06-07T21:08:01.678Z,100739.91
2019-06-07T21:10:34.658Z,100745.20
2019-06-07T21:13:08.132Z,100747.42
2019-06-07T21:15:48.995Z,100751.05
2019-06-07T21:18:19.453Z,100759.36
2019-06-07T21:20:49.050Z,100759.52
2019-06-07T21:23:21.397Z,100757.49
2019-06-07T21:25:54.081Z,100749.99
2019-06-07T21:28:26.420Z,100746.73
2019-06-07T21:30:59.462Z,100738.44
2019-06-07T21:33:31.904Z,100738.41
2019-06-07T21:36:05.748Z,100737.16
2019-06-07T21:38:38.507Z,100741.59
2019-06-07T21:41:12.455Z,100736.33
2019-06-07T21:43:45.222Z,100726.62
2019-06-07T21:46:20.434Z,100724.99
2019-06-07T21:48:51.933Z,100714.05
2019-06-07T21:51:24.364Z,100715.00
2019-06-07T21:53:56.739Z,100709.16
2019-06-07T21:56:29.691Z,100707.75
2019-06-07T21:59:05.030Z,100700.67
2019-06-07T22:01:39.181Z,100683.86
2019-06-07T22:04:11.703Z,100681.01
2019-06-07T22:06:44.312Z,100675.73
2019-06-07T22:09:16.873Z,100672.47
2019-06-07T22:11:49.370Z,100667.80
2019-06-07T22:14:21.725Z,100659.94
2019-06-07T22:16:54.225Z,100650.41
2019-06-07T22:19:26.610Z,100655.48
2019-06-07T22:22:02.711Z,100663.75
2019-06-07T22:24:33.011Z,100668.58
2019-06-07T22:27:05.412Z,100679.09
2019-06-07T22:29:37.922Z,100682.54
2019-06-07T22:32:10.944Z,100676.67
2019-06-07T22:34:43.625Z,100673.02
2019-06-07T22:37:18.130Z,100672.80
2019-06-07T22:39:50.502Z,100665.30
2019-06-07T22:42:22.832Z,100659.06
2019-06-07T22:44:55.447Z,100669.36
2019-06-07T22:47:28.173Z,100673.39
2019-06-07T22:50:00.736Z,100676.80
2019-06-07T22:52:33.196Z,100671.77
2019-06-07T22:55:05.882Z,100673.17
2019-06-07T22:57:58.350Z,100680.83
2019-06-07T23:00:32.497Z,100685.07
2019-06-07T23:03:04.911Z,100685.07
2019-06-07T23:05:38.433Z,100686.11
2019-06-07T23:08:11.040Z,100671.36
2019-06-07T23:10:43.745Z,100679.62
2019-06-07T23:13:17.713Z,100683.28
2019-06-07T23:15:50.296Z,100683.90
2019-06-07T23:18:22.784Z,100685.09
2019-06-07T23:20:55.397Z,100684.11
2019-06-07T23:23:27.845Z,100690.41
2019-06-07T23:26:00.344Z,100694.89
2019-06-07T23:28:32.766Z,100688.67
2019-06-07T23:31:06.077Z,100693.95
2019-06-07T23:33:39.021Z,100692.34
2019-06-07T23:36:12.825Z,100692.13
2019-06-07T23:38:45.763Z,100686.08
2019-06-07T23:41:18.511Z,100676.74
2019-06-07T23:43:52.224Z,100681.76
2019-06-07T23:46:24.611Z,100679.12
2019-06-07T23:48:56.911Z,100674.64
2019-06-07T23:51:29.510Z,100667.14
2019-06-07T23:54:01.904Z,100667.55
2019-06-07T23:56:34.794Z,100668.53
2019-06-07T23:59:07.168Z,100668.10
